Le terrain

Situé par 47° 02' 14" de latitude Nord et 000° 06' 05" de longitude Est, l'agréable terrain de Loudun-Véniers (LFDL) se trouve à 3 km dans le NNE de la ville natale de  Théophraste Renaudot . Vous le trouverez (le terrain !) au lieu-dit le Pé de Jojo, la légende voulant que le Pied de Jupiter - Pedem Jovis - s'y soit posé.

Loti d'une piste en herbe (790x60, voir carte VAC ci-dessous) refaite à neuf récemment (marquage de la piste – panneaux de points d'arrêts, etc…), équipé d'un automate Total (100LL),  le terrain a belle allure et est apprécié des pilotes locaux et voisins. Possibilité de prendre un rafraichissement ou boisson chaude sur place.


Situé à 11Nm de Thouars, 28Nm de Poitiers, 24 de Châtellerault, 28 de Sorigny et 16 de Saumur, il offre aux élèves effectuant leurs premières navigations en double commande ou en solo un environnement d'entraînement idéal. Pour les pilotes brevetés, il constitue un point de départ parfait pour le survol des châteaux de la Loire ou une journée sur les plages vendéennes.

Pour en savoir plus sur le Loudunais rendez-vous sur : tourisme-loudunais.com



Nous serons heureux de vous y accueillir.

Localisation sur Google map

Webcam :

Nuit aéronautique

11 Dec 2017

Heure locale,
pour LFDL uniquement.

Lever du soleil aéronautique :08:07
Lever du soleil :08:37
Coucher du soleil :17:09
Coucher du soleil aéronautique :17:39

Metar

LFBI :
2017/12/11 20:30
LFBI 112030Z AUTO 30009KT 9999 BKN046 OVC096 05/02 Q0997 NOSIG
LFBI :
Poitiers, France (LFBI) 46-35N 000-19E 120M
Dec 11, 2017 - 03:30 PM EST / 2017.12.11 2030 UTC
Wind: from the WNW (300 degrees) at 10 MPH (9 KT):0
Visibility: greater than 7 mile(s):0
Sky conditions: overcast
Temperature: 41 F (5 C)
Dew Point: 35 F (2 C)
Relative Humidity: 80%
Pressure (altimeter): 29.44 in. Hg (0997 hPa)
ob: LFBI 112030Z AUTO 30009KT 9999 BKN046 OVC096 05/02 Q0997 NOSIG
cycle: 20

Afficher le metar d'une autre station :
Code OACI :

Aéroclub de Loudun


Bellevue
86200 Loudun

05-49-98-12-81



agrandir le plan

Newsletter

Mon e-mail :